Time;durP1;ratioP1;P1;durP2;ratioP2;P2;SDS_P1;SDS_P2;PMS_P1;PMS_P2;Temp;Humidity;BMP_temperature;BMP_pressure;BME280_temperature;BME280_humidity;BME280_pressure;Samples;Min_cycle;Max_cycle;Signal;HPM_P1;HPM_P2
2023/10/31 00:00:56;;;;;;;3.83;1.40;;;;;;;12.86;100.00;98076.91;12179078;19;20006;-84
2023/10/31 00:04:58;;;;;;;4.82;1.85;;;;;;;12.83;100.00;98079.47;12194839;19;20002;-84
2023/10/31 00:09:03;;;;;;;2.70;1.55;;;;;;;12.75;100.00;98090.09;12195201;19;20014;-85
2023/10/31 00:13:04;;;;;;;5.07;2.03;;;;;;;12.75;100.00;98089.28;12170921;19;20010;-85
2023/10/31 00:17:06;;;;;;;3.80;1.40;;;;;;;12.67;100.00;98093.59;12192435;19;20353;-85
2023/10/31 00:21:08;;;;;;;5.82;1.55;;;;;;;12.50;100.00;98094.19;12197323;19;20450;-83
2023/10/31 00:25:12;;;;;;;2.83;1.40;;;;;;;12.47;100.00;98116.09;12173665;19;20042;-84
2023/10/31 00:29:14;;;;;;;1.38;0.93;;;;;;;12.46;100.00;98139.28;12192030;19;20394;-82
2023/10/31 00:33:16;;;;;;;3.80;1.73;;;;;;;12.42;100.00;98141.84;12190678;19;20046;-84
2023/10/31 00:37:18;;;;;;;2.67;1.40;;;;;;;12.33;100.00;98138.13;12169098;19;20006;-84
2023/10/31 00:41:20;;;;;;;4.63;1.42;;;;;;;12.17;100.00;98140.34;12194202;19;20545;-83
2023/10/31 00:45:22;;;;;;;2.33;1.52;;;;;;;12.07;100.00;98141.28;12193165;19;20006;-83
2023/10/31 00:49:24;;;;;;;3.17;1.50;;;;;;;11.91;100.00;98139.09;12168017;19;20003;-82
2023/10/31 00:53:26;;;;;;;2.07;1.30;;;;;;;11.80;100.00;98125.41;12191280;19;20093;-83
2023/10/31 00:57:28;;;;;;;1.90;1.10;;;;;;;11.73;100.00;98138.75;12190301;19;20371;-83
2023/10/31 01:01:30;;;;;;;1.58;1.00;;;;;;;11.61;100.00;98136.44;12175189;19;20011;-82
2023/10/31 01:05:33;;;;;;;3.95;1.40;;;;;;;11.61;100.00;98135.63;12187564;19;20010;-83
2023/10/31 01:09:34;;;;;;;2.75;1.40;;;;;;;11.63;100.00;98142.50;12191128;19;20016;-83
2023/10/31 01:13:36;;;;;;;1.13;0.73;;;;;;;11.62;100.00;98149.13;12166455;19;20020;-82
2023/10/31 01:17:41;;;;;;;2.08;0.90;;;;;;;11.54;100.00;98143.44;12189381;19;20010;-82
2023/10/31 01:21:43;;;;;;;2.70;0.98;;;;;;;11.44;100.00;98157.38;12218513;19;20080;-85
2023/10/31 01:25:44;;;;;;;1.27;0.80;;;;;;;11.33;100.00;98140.97;12182125;19;20006;-85
2023/10/31 01:29:46;;;;;;;2.15;0.80;;;;;;;11.25;100.00;98146.31;12199141;19;19999;-84
2023/10/31 01:33:50;;;;;;;1.25;0.65;;;;;;;11.14;100.00;98145.63;12191745;19;20014;-85
2023/10/31 01:37:52;;;;;;;1.53;0.93;;;;;;;11.09;100.00;98156.69;12174523;19;20074;-85
2023/10/31 01:41:54;;;;;;;1.80;0.90;;;;;;;11.01;100.00;98169.22;12192800;19;20086;-83
2023/10/31 01:45:56;;;;;;;1.98;0.80;;;;;;;10.94;100.00;98166.78;12177927;19;20421;-82
2023/10/31 01:50:01;;;;;;;3.00;0.90;;;;;;;11.08;100.00;98174.38;12198177;19;20267;-83
2023/10/31 01:54:03;;;;;;;1.83;0.82;;;;;;;11.17;100.00;98170.66;12207173;19;20891;-83
2023/10/31 01:58:05;;;;;;;1.92;0.88;;;;;;;11.22;100.00;98178.06;12185960;19;20039;-83
2023/10/31 02:02:07;;;;;;;3.30;0.90;;;;;;;11.16;100.00;98165.44;12210286;19;20010;-83
2023/10/31 02:06:09;;;;;;;2.88;0.77;;;;;;;11.04;100.00;98162.28;12206349;19;20015;-84
2023/10/31 02:10:12;;;;;;;1.05;0.95;;;;;;;10.91;100.00;98156.34;12179463;19;20003;-83
2023/10/31 02:14:14;;;;;;;3.42;0.98;;;;;;;10.83;100.00;98157.00;12200413;19;20006;-85
2023/10/31 02:18:16;;;;;;;1.90;0.90;;;;;;;10.78;100.00;98159.81;12212744;19;20034;-85
2023/10/31 02:22:17;;;;;;;0.70;0.60;;;;;;;10.68;100.00;98159.91;12186975;19;20089;-85
2023/10/31 02:26:20;;;;;;;2.33;0.90;;;;;;;10.66;100.00;98162.13;12216371;19;20037;-86
2023/10/31 02:30:22;;;;;;;1.50;0.80;;;;;;;10.59;100.00;98169.91;12235700;19;20010;-84
2023/10/31 02:34:26;;;;;;;1.38;0.90;;;;;;;10.51;100.00;98176.06;12216814;19;19998;-85
2023/10/31 02:38:27;;;;;;;2.55;1.05;;;;;;;10.43;100.00;98177.50;12243511;19;20003;-85
2023/10/31 02:42:30;;;;;;;1.67;1.02;;;;;;;10.39;100.00;98182.75;12238927;19;19999;-85
2023/10/31 02:46:32;;;;;;;1.20;0.80;;;;;;;10.42;100.00;98190.44;12219585;19;20003;-85
2023/10/31 02:50:35;;;;;;;1.27;0.88;;;;;;;10.52;100.00;98183.19;12238156;19;19994;-85
2023/10/31 02:54:37;;;;;;;1.48;0.85;;;;;;;10.64;100.00;98175.38;12240347;19;20012;-84
2023/10/31 02:58:39;;;;;;;6.70;0.90;;;;;;;10.69;100.00;98203.69;12193883;19;20026;-84
2023/10/31 03:02:41;;;;;;;2.58;1.20;;;;;;;10.75;100.00;98200.91;12207714;19;20007;-84
2023/10/31 03:06:44;;;;;;;1.75;0.68;;;;;;;10.81;100.00;98217.06;12206208;19;20030;-85
2023/10/31 03:10:52;;;;;;;4.30;1.00;;;;;;;10.84;100.00;98219.25;12184499;19;20068;-84
2023/10/31 03:14:54;;;;;;;2.88;0.75;;;;;;;10.86;100.00;98225.31;12207325;19;20003;-83
2023/10/31 03:18:56;;;;;;;1.50;0.77;;;;;;;10.92;100.00;98217.81;12191045;19;20071;-83
2023/10/31 03:22:58;;;;;;;1.73;0.90;;;;;;;10.92;100.00;98223.31;12205985;19;20035;-83
2023/10/31 03:27:00;;;;;;;1.70;1.02;;;;;;;10.88;100.00;98227.75;12205146;19;20031;-83
2023/10/31 03:31:02;;;;;;;0.75;0.60;;;;;;;10.86;100.00;98225.31;12181990;19;20014;-83
2023/10/31 03:35:05;;;;;;;2.78;1.15;;;;;;;10.89;100.00;98244.00;12203870;19;20010;-83
2023/10/31 03:39:08;;;;;;;2.13;0.85;;;;;;;10.91;100.00;98255.53;12204619;19;20402;-83
2023/10/31 03:43:11;;;;;;;4.93;1.20;;;;;;;10.95;100.00;98248.38;12183555;19;20018;-83
2023/10/31 03:47:13;;;;;;;1.65;1.00;;;;;;;11.04;100.00;98261.53;12207735;19;20251;-83
2023/10/31 03:51:16;;;;;;;1.67;1.00;;;;;;;11.11;100.00;98259.22;12200111;19;20026;-83
2023/10/31 03:55:17;;;;;;;3.07;1.10;;;;;;;11.22;100.00;98273.75;12180912;19;20026;-83
2023/10/31 03:59:20;;;;;;;2.40;1.10;;;;;;;11.28;100.00;98276.16;12192683;19;20260;-83
2023/10/31 04:03:22;;;;;;;1.85;0.80;;;;;;;11.25;100.00;98275.91;12203944;19;20251;-84
2023/10/31 04:07:24;;;;;;;1.63;1.00;;;;;;;11.16;100.00;98282.06;12173854;19;20018;-83
2023/10/31 04:11:26;;;;;;;0.88;0.60;;;;;;;11.06;100.00;98273.06;12199799;19;20002;-83
2023/10/31 04:15:28;;;;;;;2.78;1.10;;;;;;;11.04;100.00;98258.75;12201088;19;20390;-84
2023/10/31 04:19:30;;;;;;;2.67;0.95;;;;;;;10.95;100.00;98273.16;12176350;19;20032;-83
2023/10/31 04:23:32;;;;;;;1.60;0.90;;;;;;;10.95;100.00;98273.16;12200937;19;20331;-82
2023/10/31 04:27:33;;;;;;;3.03;1.42;;;;;;;11.00;100.00;98282.47;12196001;19;20255;-84
2023/10/31 04:31:37;;;;;;;1.63;0.88;;;;;;;11.05;100.00;98282.44;12174178;19;19999;-82
2023/10/31 04:35:45;;;;;;;2.63;1.10;;;;;;;11.13;100.00;98288.16;12191468;19;20011;-85
2023/10/31 04:39:46;;;;;;;1.55;1.02;;;;;;;11.17;100.00;98277.38;12193613;19;20006;-83
2023/10/31 04:43:48;;;;;;;3.25;1.10;;;;;;;11.18;100.00;98284.50;12168505;19;20010;-82
2023/10/31 04:47:53;;;;;;;3.63;1.20;;;;;;;11.17;100.00;98289.22;12193143;19;20608;-82
2023/10/31 04:51:55;;;;;;;1.88;0.90;;;;;;;11.22;100.00;98285.59;12186064;19;20018;-83
2023/10/31 04:55:57;;;;;;;1.45;0.90;;;;;;;11.24;100.00;98288.84;12194590;19;20026;-83
2023/10/31 04:59:59;;;;;;;1.97;0.87;;;;;;;11.28;100.00;98291.88;12196632;19;20014;-84
2023/10/31 05:04:02;;;;;;;3.97;0.90;;;;;;;11.30;100.00;98297.91;12171882;19;20512;-81
2023/10/31 05:08:13;;;;;;;2.03;0.82;;;;;;;11.33;100.00;98306.44;12190342;19;20046;-81
2023/10/31 05:12:16;;;;;;;3.55;0.95;;;;;;;11.35;100.00;98298.66;12187330;19;20010;-82
2023/10/31 05:16:18;;;;;;;1.83;0.90;;;;;;;11.40;100.00;98312.41;12166025;19;20007;-82
2023/10/31 05:20:21;;;;;;;;;;;;;;;11.42;100.00;98306.59;12189501;19;20006;-83
2023/10/31 05:24:23;;;;;;;1.58;0.80;;;;;;;11.47;100.00;98308.50;12188610;19;19915;-82
2023/10/31 05:28:25;;;;;;;1.10;0.70;;;;;;;11.48;100.00;98316.50;12174220;19;19999;-81
2023/10/31 05:32:29;;;;;;;0.65;0.57;;;;;;;11.49;100.00;98322.81;12193413;19;19998;-80
2023/10/31 05:36:35;;;;;;;2.80;0.70;;;;;;;11.53;100.00;98323.88;12192992;19;20048;-81
2023/10/31 05:40:37;;;;;;;3.17;0.77;;;;;;;11.56;100.00;98323.28;12174949;19;20021;-82
2023/10/31 05:44:39;;;;;;;2.70;1.15;;;;;;;11.56;100.00;98328.81;12198880;19;20386;-82
2023/10/31 05:48:43;;;;;;;1.52;0.85;;;;;;;11.63;100.00;98340.34;12198431;19;20357;-82
2023/10/31 05:52:45;;;;;;;1.02;0.73;;;;;;;11.65;100.00;98343.59;12171532;19;20354;-82
2023/10/31 05:56:47;;;;;;;3.33;0.60;;;;;;;11.66;100.00;98350.78;12193626;19;20382;-81
2023/10/31 06:00:48;;;;;;;1.58;0.88;;;;;;;11.65;100.00;98357.41;12192859;19;20010;-81
2023/10/31 06:04:50;;;;;;;0.70;0.60;;;;;;;11.61;100.00;98361.88;12172658;19;20010;-80
2023/10/31 06:08:52;;;;;;;2.75;0.70;;;;;;;11.58;100.00;98370.72;12199012;19;20015;-81
2023/10/31 06:12:53;;;;;;;4.07;1.05;;;;;;;11.55;100.00;98371.31;12198838;19;20027;-81
2023/10/31 06:16:59;;;;;;;4.05;1.52;;;;;;;11.55;100.00;98379.59;12166905;19;20027;-80
2023/10/31 06:21:01;;;;;;;2.88;0.80;;;;;;;11.52;100.00;98397.53;12212167;19;20022;-82
2023/10/31 06:25:03;;;;;;;1.15;0.65;;;;;;;11.49;100.00;98402.81;12190910;19;20021;-80
2023/10/31 06:29:04;;;;;;;1.20;0.80;;;;;;;11.52;100.00;98410.50;12222288;19;20010;-81
2023/10/31 06:33:26;;;;;;;1.23;0.60;;;;;;;11.50;100.00;98418.25;12218249;19;20029;-79
2023/10/31 06:37:28;;;;;;;3.70;0.80;;;;;;;11.52;100.00;98418.78;12184991;19;20010;-79
2023/10/31 06:41:30;;;;;;;1.50;0.80;;;;;;;11.56;100.00;98425.34;12213972;19;20005;-80
2023/10/31 06:45:31;;;;;;;1.10;0.63;;;;;;;11.50;100.00;98429.28;12210200;19;20006;-80
2023/10/31 06:49:33;;;;;;;3.22;0.82;;;;;;;11.54;100.00;98439.47;12181609;19;20062;-79
2023/10/31 06:53:35;;;;;;;3.35;0.88;;;;;;;11.51;100.00;98441.94;12202616;19;20056;-79
2023/10/31 06:57:37;;;;;;;2.25;0.75;;;;;;;11.50;100.00;98443.88;12200322;19;20060;-80
2023/10/31 07:01:39;;;;;;;2.90;1.63;;;;;;;11.57;100.00;98446.31;12179036;19;20006;-80
2023/10/31 07:05:41;;;;;;;3.07;1.07;;;;;;;11.56;100.00;98459.28;12203283;19;20027;-80
2023/10/31 07:09:43;;;;;;;3.17;0.98;;;;;;;11.57;100.00;98468.38;12203122;19;20006;-79
2023/10/31 07:13:45;;;;;;;2.20;0.90;;;;;;;11.53;100.00;98470.91;12177038;19;20026;-79
2023/10/31 07:17:47;;;;;;;5.43;0.95;;;;;;;11.55;100.00;98478.91;12194371;19;21394;-79
2023/10/31 07:21:49;;;;;;;0.98;0.77;;;;;;;11.58;100.00;98492.13;12193131;19;20017;-79
2023/10/31 07:25:51;;;;;;;2.55;1.17;;;;;;;11.57;100.00;98496.81;12165505;19;20615;-79
2023/10/31 07:29:53;;;;;;;2.23;1.17;;;;;;;11.53;100.00;98501.25;12191359;19;20023;-79
2023/10/31 07:33:56;;;;;;;1.23;0.88;;;;;;;11.59;100.00;98515.81;12193233;19;20014;-80
2023/10/31 07:37:57;;;;;;;1.30;0.90;;;;;;;11.57;100.00;98515.28;12173446;19;20025;-80
2023/10/31 07:41:59;;;;;;;2.92;1.10;;;;;;;11.62;100.00;98518.81;12194118;19;20003;-80
2023/10/31 07:46:01;;;;;;;1.98;1.00;;;;;;;11.64;100.00;98529.59;12169799;19;20027;-79
2023/10/31 07:50:04;;;;;;;2.83;1.15;;;;;;;11.67;100.00;98529.00;12198857;19;20030;-79
2023/10/31 07:54:06;;;;;;;;;;;;;;;11.66;100.00;98532.03;12196845;19;20024;-80
2023/10/31 07:58:09;;;;;;;1.63;0.90;;;;;;;11.70;100.00;98533.94;12171414;19;19911;-79
2023/10/31 08:02:11;;;;;;;2.50;1.10;;;;;;;11.76;100.00;98535.56;12197946;19;20022;-79
2023/10/31 08:06:13;;;;;;;3.80;1.30;;;;;;;11.80;100.00;98533.03;12196995;19;20009;-80
2023/10/31 08:10:15;;;;;;;3.05;1.20;;;;;;;11.82;100.00;98541.84;12176749;19;20011;-80
2023/10/31 08:14:17;;;;;;;2.15;1.00;;;;;;;11.89;100.00;98539.59;12199494;19;20636;-79
2023/10/31 08:18:19;;;;;;;1.63;1.08;;;;;;;12.00;100.00;98538.41;12199522;19;20002;-79
2023/10/31 08:22:21;;;;;;;1.38;0.77;;;;;;;12.10;100.00;98543.00;12170907;19;20054;-79
2023/10/31 08:26:23;;;;;;;2.75;1.25;;;;;;;12.20;100.00;98542.09;12186414;19;20015;-79
2023/10/31 08:30:26;;;;;;;6.18;1.27;;;;;;;12.23;100.00;98547.84;12187994;19;20015;-78
2023/10/31 08:34:28;;;;;;;4.15;1.33;;;;;;;12.34;100.00;98550.50;12170423;19;20036;-80
2023/10/31 08:38:32;;;;;;;4.63;1.25;;;;;;;12.39;100.00;98550.47;12189056;19;20006;-79
2023/10/31 08:42:34;;;;;;;2.83;0.80;;;;;;;12.45;100.00;98552.03;12182891;19;20010;-79
2023/10/31 08:46:35;;;;;;;3.00;1.20;;;;;;;12.55;100.00;98565.75;12167302;19;20257;-79
2023/10/31 08:50:38;;;;;;;4.80;1.00;;;;;;;12.58;100.00;98567.91;12194111;19;20002;-79
2023/10/31 08:54:40;;;;;;;1.65;0.90;;;;;;;12.60;100.00;98573.97;12190992;19;20043;-79
2023/10/31 08:58:42;;;;;;;1.10;0.75;;;;;;;12.66;100.00;98580.28;12163566;19;21389;-79
2023/10/31 09:02:45;;;;;;;1.63;0.90;;;;;;;12.67;100.00;98585.53;12187856;19;20757;-79
2023/10/31 09:06:51;;;;;;;2.67;0.90;;;;;;;12.80;100.00;98597.00;12184689;19;20023;-79
2023/10/31 09:10:53;;;;;;;1.97;0.90;;;;;;;12.85;100.00;98603.28;12172562;19;20018;-79
2023/10/31 09:14:55;;;;;;;1.43;0.90;;;;;;;12.91;100.00;98607.63;12195011;19;20013;-79
2023/10/31 09:18:57;;;;;;;1.25;0.80;;;;;;;12.92;100.00;98606.50;12177442;19;20347;-80
2023/10/31 09:22:58;;;;;;;3.07;1.10;;;;;;;12.91;100.00;98606.78;12193913;19;20006;-79
2023/10/31 09:27:00;;;;;;;2.20;0.90;;;;;;;13.00;100.00;98621.63;12182431;19;20011;-80
2023/10/31 09:31:03;;;;;;;1.42;0.80;;;;;;;13.16;100.00;98622.28;12167390;19;20011;-79
2023/10/31 09:35:08;;;;;;;2.88;0.93;;;;;;;13.21;100.00;98628.56;12187580;19;20011;-79
2023/10/31 09:39:11;;;;;;;2.50;1.00;;;;;;;13.31;100.00;98632.34;12183506;19;20021;-79
2023/10/31 09:43:13;;;;;;;1.05;0.60;;;;;;;13.50;100.00;98635.13;12161947;19;20007;-79
2023/10/31 09:47:15;;;;;;;1.38;0.80;;;;;;;13.50;100.00;98630.41;12181190;19;20071;-79
2023/10/31 09:51:17;;;;;;;0.93;0.80;;;;;;;13.51;100.00;98636.78;12188070;19;20021;-80
2023/10/31 09:55:19;;;;;;;2.40;0.77;;;;;;;13.63;100.00;98646.28;12187154;19;20892;-80
2023/10/31 09:59:21;;;;;;;1.83;0.87;;;;;;;13.58;100.00;98640.81;12182715;19;20014;-79
2023/10/31 10:03:24;;;;;;;3.17;0.90;;;;;;;13.61;100.00;98643.00;12188730;19;20048;-78
2023/10/31 10:07:26;;;;;;;1.50;0.80;;;;;;;13.75;100.00;98642.25;12167850;19;20028;-79
2023/10/31 10:11:28;;;;;;;2.92;1.17;;;;;;;13.83;100.00;98647.09;12207516;19;20007;-80
2023/10/31 10:15:30;;;;;;;3.83;0.90;;;;;;;13.91;100.00;98635.34;12201408;19;20367;-80
2023/10/31 10:19:34;;;;;;;4.38;1.05;;;;;;;14.01;100.00;98635.22;12176931;19;20014;-79
2023/10/31 10:23:35;;;;;;;2.03;0.90;;;;;;;14.06;100.00;98637.88;12190487;19;20006;-79
2023/10/31 10:27:37;;;;;;;1.67;0.60;;;;;;;14.18;100.00;98644.91;12189860;19;20010;-79
2023/10/31 10:31:40;;;;;;;4.67;1.00;;;;;;;14.16;100.00;98647.16;12176119;19;20011;-79
2023/10/31 10:35:44;;;;;;;1.98;0.80;;;;;;;14.18;100.00;98645.72;12194504;19;20021;-80
2023/10/31 10:39:49;;;;;;;4.10;1.20;;;;;;;14.31;100.00;98641.38;12195416;19;20010;-80
2023/10/31 10:44:05;;;;;;;3.22;0.65;;;;;;;14.46;100.00;98641.13;12171008;19;20003;-80
2023/10/31 10:48:13;;;;;;;3.60;0.80;;;;;;;14.42;95.93;98642.84;12199437;19;20014;-81
2023/10/31 10:52:35;;;;;;;1.90;0.82;;;;;;;14.32;93.69;98643.84;12199726;19;20054;-81
2023/10/31 10:56:38;;;;;;;5.97;1.10;;;;;;;14.30;95.37;98636.94;12174636;19;20462;-81
2023/10/31 11:00:44;;;;;;;1.55;0.50;;;;;;;14.28;91.27;98640.03;12192173;19;20015;-81
2023/10/31 11:04:47;;;;;;;4.15;0.80;;;;;;;14.52;93.11;98639.94;12170735;19;20023;-81
2023/10/31 11:08:53;;;;;;;2.60;0.70;;;;;;;14.70;91.71;98632.69;12191469;19;20003;-80
2023/10/31 11:12:56;;;;;;;1.92;0.77;;;;;;;14.73;89.17;98629.28;12195892;19;20006;-81
2023/10/31 11:17:11;;;;;;;4.50;0.90;;;;;;;14.72;83.61;98635.97;12181932;19;20036;-80
2023/10/31 11:21:22;;;;;;;2.75;1.23;;;;;;;14.66;82.75;98631.63;12196261;19;21831;-82
2023/10/31 11:25:24;;;;;;;4.50;0.60;;;;;;;14.79;85.15;98635.56;12186940;19;20010;-81
2023/10/31 11:29:34;;;;;;;4.85;1.50;;;;;;;14.89;85.59;98638.13;12187292;19;20006;-80
2023/10/31 11:33:40;;;;;;;3.05;0.80;;;;;;;14.85;86.35;98637.09;12187493;19;20003;-81
2023/10/31 11:37:41;;;;;;;2.28;1.00;;;;;;;14.99;89.47;98634.31;12166487;19;20049;-80
2023/10/31 11:41:53;;;;;;;2.70;1.17;;;;;;;14.96;88.70;98638.56;12190984;19;20014;-80
2023/10/31 11:45:59;;;;;;;6.72;1.10;;;;;;;14.87;85.35;98645.94;12195492;19;20006;-82
2023/10/31 11:50:02;;;;;;;4.15;1.20;;;;;;;14.93;84.60;98650.28;12172984;19;20011;-82
2023/10/31 11:54:08;;;;;;;3.92;0.82;;;;;;;14.82;82.77;98644.09;12190369;19;20102;-81
2023/10/31 11:58:25;;;;;;;0.98;0.73;;;;;;;14.71;81.57;98644.59;12185139;19;20015;-82
2023/10/31 12:02:27;;;;;;;7.20;1.02;;;;;;;14.74;83.99;98655.06;12164161;19;20019;-81
2023/10/31 12:06:29;;;;;;;1.60;0.80;;;;;;;14.73;84.18;98656.19;12186047;19;20378;-81
2023/10/31 12:10:31;;;;;;;3.10;1.00;;;;;;;14.67;83.52;98662.97;12165767;19;20006;-82
2023/10/31 12:14:36;;;;;;;3.80;0.80;;;;;;;14.74;84.16;98663.38;12193436;19;20002;-80
2023/10/31 12:18:40;;;;;;;4.00;1.10;;;;;;;14.68;86.11;98665.41;12188585;19;20019;-82
2023/10/31 12:22:44;;;;;;;6.32;1.05;;;;;;;14.61;86.55;98672.50;12160455;19;20107;-80
2023/10/31 12:26:47;;;;;;;4.35;1.33;;;;;;;14.57;87.59;98669.50;12183432;19;20052;-81
2023/10/31 12:30:51;;;;;;;5.78;1.25;;;;;;;14.51;87.49;98673.44;12179168;19;20018;-81
2023/10/31 12:34:54;;;;;;;4.07;1.30;;;;;;;14.61;88.20;98678.88;12160805;19;20007;-81
2023/10/31 12:38:56;;;;;;;4.18;1.20;;;;;;;14.70;85.67;98679.00;12181563;19;20007;-81
2023/10/31 12:42:59;;;;;;;2.72;1.00;;;;;;;14.89;82.83;98682.50;12185741;19;20010;-80
2023/10/31 12:47:01;;;;;;;2.22;0.80;;;;;;;15.16;82.08;98681.72;12160365;19;20011;-80
2023/10/31 12:51:09;;;;;;;4.57;1.23;;;;;;;15.39;81.44;98685.41;12178041;19;20007;-81
2023/10/31 12:55:16;;;;;;;4.63;0.90;;;;;;;15.87;79.88;98678.59;12182550;19;20010;-81
2023/10/31 12:59:19;;;;;;;4.75;0.90;;;;;;;16.28;77.72;98675.69;12155009;19;20057;-81
2023/10/31 13:03:22;;;;;;;6.10;0.98;;;;;;;16.30;73.97;98684.53;12179272;19;20006;-81
2023/10/31 13:07:27;;;;;;;2.15;0.80;;;;;;;16.10;73.27;98685.84;12158673;19;20081;-81
2023/10/31 13:11:30;;;;;;;3.38;0.90;;;;;;;15.81;73.24;98694.56;12183345;19;20007;-80
2023/10/31 13:15:32;;;;;;;3.95;0.70;;;;;;;15.74;76.10;98701.69;12177298;19;20006;-81
2023/10/31 13:19:34;;;;;;;2.47;1.10;;;;;;;15.66;76.20;98694.84;12152473;19;20014;-81
2023/10/31 13:23:45;;;;;;;2.40;0.80;;;;;;;15.47;76.92;98700.53;12177528;19;20009;-81
2023/10/31 13:27:51;;;;;;;4.03;1.42;;;;;;;15.44;78.84;98696.44;12184550;19;20006;-80
2023/10/31 13:31:53;;;;;;;4.90;1.58;;;;;;;15.47;80.75;98698.59;12153609;19;20473;-81
2023/10/31 13:35:55;;;;;;;4.82;1.42;;;;;;;15.72;81.28;98700.03;12184530;19;20010;-81
2023/10/31 13:39:59;;;;;;;5.28;1.55;;;;;;;15.88;81.47;98683.00;12179590;19;20014;-81
2023/10/31 13:44:03;;;;;;;4.18;1.23;;;;;;;15.99;80.99;98703.88;12160398;19;20006;-82
2023/10/31 13:48:06;;;;;;;6.53;1.58;;;;;;;16.02;79.82;98696.88;12199487;19;20006;-81
2023/10/31 13:52:08;;;;;;;4.18;1.38;;;;;;;16.15;77.84;98701.56;12202506;19;20010;-83
2023/10/31 13:56:10;;;;;;;4.23;1.30;;;;;;;16.25;73.90;98706.88;12197633;19;20030;-82
2023/10/31 14:00:12;;;;;;;1.93;1.00;;;;;;;16.29;74.83;98699.56;12244761;19;20007;-80
2023/10/31 14:04:14;;;;;;;3.00;1.10;;;;;;;16.30;75.11;98703.16;12230053;19;20255;-81
2023/10/31 14:08:19;;;;;;;6.22;1.00;;;;;;;16.22;74.51;98713.09;12182861;19;20019;-81
2023/10/31 14:12:26;;;;;;;4.50;0.70;;;;;;;16.11;72.60;98711.66;12199994;19;20011;-84
2023/10/31 14:16:29;;;;;;;4.78;1.00;;;;;;;16.17;75.20;98716.78;12184459;19;20026;-82
2023/10/31 14:20:31;;;;;;;1.98;0.77;;;;;;;16.25;73.49;98723.56;12196809;19;20102;-80
2023/10/31 14:24:34;;;;;;;;;;;;;;;16.09;73.54;98722.25;12202231;19;20829;-81
2023/10/31 14:28:38;;;;;;;4.17;1.00;;;;;;;15.83;75.53;98728.41;12185658;19;20756;-81
2023/10/31 14:32:40;;;;;;;1.73;0.70;;;;;;;15.50;77.26;98733.25;12206390;19;20003;-81
2023/10/31 14:36:42;;;;;;;1.07;0.73;;;;;;;15.37;78.08;98732.09;12207221;19;20046;-82
2023/10/31 14:40:44;;;;;;;2.38;0.80;;;;;;;15.35;78.87;98737.13;12187225;19;20025;-81
2023/10/31 14:44:47;;;;;;;6.88;0.80;;;;;;;15.34;79.76;98743.81;12207184;19;20014;-81
2023/10/31 14:48:49;;;;;;;1.95;0.88;;;;;;;15.16;80.26;98744.72;12200786;19;20343;-81
2023/10/31 14:52:51;;;;;;;3.53;1.08;;;;;;;14.94;81.93;98751.78;12176778;19;20014;-80
2023/10/31 14:56:53;;;;;;;4.13;1.30;;;;;;;14.80;83.93;98754.50;12196373;19;20091;-82
2023/10/31 15:00:55;;;;;;;2.88;1.05;;;;;;;14.69;84.63;98769.66;12198837;19;20023;-80
2023/10/31 15:04:57;;;;;;;6.03;1.00;;;;;;;14.56;86.55;98757.38;12175674;19;20092;-81
2023/10/31 15:08:59;;;;;;;2.75;1.00;;;;;;;14.52;87.20;98767.44;12194982;19;21036;-81
2023/10/31 15:13:04;;;;;;;3.03;1.13;;;;;;;14.48;88.17;98763.56;12198318;19;20010;-80
2023/10/31 15:17:07;;;;;;;2.28;1.40;;;;;;;14.33;90.72;98759.09;12168877;19;20358;-82
2023/10/31 15:21:09;;;;;;;2.85;1.48;;;;;;;14.20;92.32;98770.94;12187343;19;20402;-82
2023/10/31 15:25:12;;;;;;;4.78;1.65;;;;;;;14.09;94.30;98766.66;12188732;19;21138;-81
2023/10/31 15:29:14;;;;;;;7.07;1.40;;;;;;;13.88;96.35;98774.41;12170792;19;20006;-81
2023/10/31 15:33:16;;;;;;;3.53;1.50;;;;;;;13.76;97.33;98783.16;12186960;19;20034;-82
2023/10/31 15:37:19;;;;;;;5.30;1.67;;;;;;;13.62;99.26;98782.22;12190426;19;20018;-80
2023/10/31 15:41:23;;;;;;;5.28;1.63;;;;;;;13.48;100.00;98784.06;12173278;19;20627;-81
2023/10/31 15:45:25;;;;;;;3.25;1.45;;;;;;;13.44;100.00;98800.41;12191703;19;20006;-81
2023/10/31 15:49:26;;;;;;;3.97;1.80;;;;;;;13.40;100.00;98802.13;12167184;19;20347;-80
2023/10/31 15:53:28;;;;;;;4.30;1.38;;;;;;;13.37;100.00;98803.53;12182938;19;20007;-80
2023/10/31 15:57:30;;;;;;;4.10;1.90;;;;;;;13.35;100.00;98811.28;12184002;19;20457;-81
2023/10/31 16:01:36;;;;;;;5.18;1.77;;;;;;;13.36;100.00;98812.13;12165620;19;19999;-81
2023/10/31 16:05:40;;;;;;;5.93;1.70;;;;;;;13.34;100.00;98814.34;12193210;19;20671;-81
2023/10/31 16:09:42;;;;;;;5.87;1.93;;;;;;;13.32;100.00;98819.34;12184606;19;20539;-81
2023/10/31 16:13:44;;;;;;;5.27;1.57;;;;;;;13.32;100.00;98831.25;12167102;19;20018;-81
2023/10/31 16:17:47;;;;;;;4.88;1.90;;;;;;;13.31;100.00;98837.06;12189906;19;20014;-81
2023/10/31 16:21:49;;;;;;;7.90;2.00;;;;;;;13.28;100.00;98832.94;12194026;19;20003;-80
2023/10/31 16:25:51;;;;;;;7.00;2.03;;;;;;;13.27;100.00;98838.78;12172647;19;20010;-80
2023/10/31 16:29:53;;;;;;;6.35;2.17;;;;;;;13.25;100.00;98860.34;12196376;19;20014;-79
2023/10/31 16:33:55;;;;;;;3.80;1.50;;;;;;;13.26;100.00;98864.78;12181436;19;20958;-80
2023/10/31 16:37:57;;;;;;;4.60;1.70;;;;;;;13.23;100.00;98863.38;12179120;19;20469;-81
2023/10/31 16:41:58;;;;;;;4.22;2.17;;;;;;;13.23;100.00;98869.75;12194773;19;21516;-79
2023/10/31 16:46:01;;;;;;;3.92;1.85;;;;;;;13.21;100.00;98876.72;12202259;19;20114;-77
2023/10/31 16:50:03;;;;;;;6.85;2.47;;;;;;;13.21;100.00;98877.53;12178003;19;20046;-78
2023/10/31 16:54:06;;;;;;;9.10;2.65;;;;;;;13.14;100.00;98882.53;12196162;19;20011;-77
2023/10/31 16:58:09;;;;;;;4.20;2.05;;;;;;;13.09;100.00;98890.91;12198445;19;20014;-80
2023/10/31 17:02:12;;;;;;;4.10;1.88;;;;;;;13.05;100.00;98889.81;12168913;19;20006;-78
2023/10/31 17:06:14;;;;;;;5.32;2.70;;;;;;;13.09;100.00;98901.97;12186917;19;20823;-77
2023/10/31 17:10:17;;;;;;;3.40;1.60;;;;;;;13.08;100.00;98903.06;12188717;19;20014;-78
2023/10/31 17:14:19;;;;;;;4.40;1.50;;;;;;;13.11;100.00;98918.25;12170891;19;20015;-77
2023/10/31 17:18:27;;;;;;;3.35;1.75;;;;;;;13.09;100.00;98918.56;12192431;19;20026;-77
2023/10/31 17:22:30;;;;;;;3.30;1.80;;;;;;;13.06;100.00;98921.91;12200280;19;20051;-78
2023/10/31 17:26:34;;;;;;;6.93;2.38;;;;;;;13.03;100.00;98928.00;12178508;19;19998;-78
2023/10/31 17:30:36;;;;;;;6.70;2.40;;;;;;;13.03;100.00;98929.94;12198675;19;20045;-78
2023/10/31 17:34:38;;;;;;;6.00;2.15;;;;;;;13.04;100.00;98937.94;12177445;19;20017;-78
2023/10/31 17:38:47;;;;;;;6.88;2.28;;;;;;;13.03;100.00;98955.66;12191883;19;20532;-79
2023/10/31 17:42:49;;;;;;;6.07;2.40;;;;;;;12.97;100.00;98960.41;12193724;19;20010;-78
2023/10/31 17:46:51;;;;;;;5.13;1.98;;;;;;;12.98;100.00;98961.22;12173444;19;20025;-77
2023/10/31 17:50:55;;;;;;;5.68;2.13;;;;;;;13.01;100.00;98966.19;12197930;19;20017;-78
2023/10/31 17:54:57;;;;;;;5.82;2.08;;;;;;;13.00;100.00;98979.19;12199108;19;20021;-78
2023/10/31 17:58:58;;;;;;;9.27;2.10;;;;;;;13.02;100.00;98973.34;12179716;19;20014;-78
2023/10/31 18:03:00;;;;;;;3.40;1.58;;;;;;;13.05;100.00;98967.25;12202670;19;20007;-77
2023/10/31 18:07:02;;;;;;;5.22;1.95;;;;;;;13.03;100.00;98972.28;12201873;19;20011;-78
2023/10/31 18:11:05;;;;;;;6.07;2.10;;;;;;;13.04;100.00;98982.22;12184064;19;20010;-78
2023/10/31 18:15:08;;;;;;;3.95;1.60;;;;;;;13.06;100.00;98987.44;12198999;19;20006;-77
2023/10/31 18:19:10;;;;;;;4.18;1.92;;;;;;;13.06;100.00;98995.72;12199969;19;20003;-78
2023/10/31 18:23:13;;;;;;;7.35;1.50;;;;;;;13.06;100.00;98990.19;12175867;19;20018;-78
2023/10/31 18:27:16;;;;;;;6.18;1.90;;;;;;;13.01;100.00;98996.59;12201385;19;20402;-77
2023/10/31 18:31:18;;;;;;;4.47;1.60;;;;;;;12.98;100.00;99011.00;12210321;19;21157;-79
2023/10/31 18:35:20;;;;;;;3.70;1.50;;;;;;;12.94;100.00;99009.94;12191576;19;20023;-78
2023/10/31 18:39:22;;;;;;;5.70;1.98;;;;;;;12.89;100.00;99008.00;12210443;19;20599;-77